Danville, VA

12:03 PM EST on March 06, 2015 (GMT -0500)
VADOT Rt_58_Bridge_@_Rt_265 | Change Station
CLOSE
Current Station
Personal Weather Station
Location: Danville, VA
Elevation: 496 ft
Nearby Weather Stations

Elev 496 ft 36.58 °N, 79.36 °W | Updated 57 minutes ago

Clear
Clear
28 °F
Feels Like 21 °F
N
7
Wind Variable Wind from NNE
Gusts 13.0 mph

Today
High -- | Low -- °F
--% Chance of Precip.
Yesterday
High -- | Low -- °F
Precip. -- in
6:41 AM 6:16 PM
Full, 99% visible
Pressure 30.52 in
Visibility 10.0 miles
Clouds Clear
Windchill 21 °F
Dew Point 12 °F
Humidity 50%
Rainfall in
Snow Depth Not available.
UV 7 out of 12
Pollen 3.20 out of 12
Air Quality Not available.
Flu Activity Not available.
METAR KDAN 061653Z AUTO 10006KT 10SM CLR M01/M12 A3052 RMK AO2 SLP335 T10111122

More Conditions Fewer Conditions

Pressure 30.52 in
Visibility 10.0 miles
Clouds Clear
Windchill 21 °F
Dew Point 12 °F
Humidity 50%
Rainfall in
Snow Depth Not available.
UV 7 out of 12
Pollen 3.20 out of 12
Air Quality Not available.
Flu Activity Not available.
METAR KDAN 061653Z AUTO 10006KT 10SM CLR M01/M12 A3052 RMK AO2 SLP335 T10111122

More Conditions Fewer Conditions

10-Day Weather Forecast

Almanac

Astronomy

Mar. 06, 2015 Rise Set
Actual Time
Civil Twilight
Nautical Twilight
Astronomical Twilight
Moon
Length of Visible Light
Length of Day
Tomorrow will be .
, % of the Moon is Illuminated

Today's Extremes

State Highs State Lows

Community

WunderPhotos

Upload Photos

1,803,337 photos uploaded!

WunderBlogs® & News

Nearby

Air Quality

  Air Quality AQ Index Pollutant
Not available.

Snow Depth

Station Depth Elevation

Earthquake Activity

City Distance Mag. Time & Date
Minimum magnitude displayed is 2.5.

Coastal Water Temperatures

Place Temperature

Nearby Weather Stations